sensor_id;sensor_type;location;lat;lon;timestamp;P1;durP1;ratioP1;P2;durP2;ratioP2
38937;SDS011;24727;51.974;20.868;2023-04-03T00:00:59;2.42;;;0.95;;
38937;SDS011;24727;51.974;20.868;2023-04-03T00:03:25;2.63;;;1.05;;
38937;SDS011;24727;51.974;20.868;2023-04-03T00:05:51;2.08;;;0.98;;
38937;SDS011;24727;51.974;20.868;2023-04-03T00:08:19;5.13;;;0.85;;
38937;SDS011;24727;51.974;20.868;2023-04-03T00:10:45;2.55;;;0.77;;
38937;SDS011;24727;51.974;20.868;2023-04-03T00:13:11;2.33;;;1.00;;
38937;SDS011;24727;51.974;20.868;2023-04-03T00:15:38;7.72;;;1.63;;
38937;SDS011;24727;51.974;20.868;2023-04-03T00:18:06;3.00;;;1.00;;
38937;SDS011;24727;51.974;20.868;2023-04-03T00:20:34;3.92;;;0.90;;
38937;SDS011;24727;51.974;20.868;2023-04-03T00:23:01;3.25;;;1.02;;
38937;SDS011;24727;51.974;20.868;2023-04-03T00:25:28;2.55;;;0.60;;
38937;SDS011;24727;51.974;20.868;2023-04-03T00:27:55;4.07;;;1.05;;
38937;SDS011;24727;51.974;20.868;2023-04-03T00:30:21;1.83;;;0.70;;
38937;SDS011;24727;51.974;20.868;2023-04-03T00:32:48;2.55;;;0.85;;
38937;SDS011;24727;51.974;20.868;2023-04-03T00:35:16;2.17;;;0.63;;
38937;SDS011;24727;51.974;20.868;2023-04-03T00:37:44;3.20;;;1.20;;
38937;SDS011;24727;51.974;20.868;2023-04-03T00:40:12;2.63;;;0.75;;
38937;SDS011;24727;51.974;20.868;2023-04-03T00:42:39;3.22;;;1.00;;
38937;SDS011;24727;51.974;20.868;2023-04-03T00:47:51;2.40;;;0.70;;
38937;SDS011;24727;51.974;20.868;2023-04-03T00:50:19;4.78;;;0.95;;
38937;SDS011;24727;51.974;20.868;2023-04-03T00:52:46;1.88;;;0.88;;
38937;SDS011;24727;51.974;20.868;2023-04-03T00:55:14;2.17;;;0.80;;
38937;SDS011;24727;51.974;20.868;2023-04-03T00:57:42;1.85;;;1.00;;
38937;SDS011;24727;51.974;20.868;2023-04-03T01:00:12;2.40;;;0.85;;
38937;SDS011;24727;51.974;20.868;2023-04-03T01:02:41;3.33;;;0.85;;
38937;SDS011;24727;51.974;20.868;2023-04-03T01:05:07;2.60;;;0.75;;
38937;SDS011;24727;51.974;20.868;2023-04-03T01:07:35;1.60;;;0.77;;
38937;SDS011;24727;51.974;20.868;2023-04-03T01:10:05;6.32;;;0.85;;
38937;SDS011;24727;51.974;20.868;2023-04-03T01:12:36;3.58;;;1.23;;
38937;SDS011;24727;51.974;20.868;2023-04-03T01:15:11;2.92;;;0.70;;
38937;SDS011;24727;51.974;20.868;2023-04-03T01:23:25;1.45;;;1.00;;
38937;SDS011;24727;51.974;20.868;2023-04-03T01:26:00;2.10;;;0.70;;
38937;SDS011;24727;51.974;20.868;2023-04-03T01:28:30;3.28;;;0.90;;
38937;SDS011;24727;51.974;20.868;2023-04-03T01:33:53;2.50;;;1.13;;
38937;SDS011;24727;51.974;20.868;2023-04-03T01:36:21;2.70;;;1.17;;
38937;SDS011;24727;51.974;20.868;2023-04-03T01:39:01;3.25;;;0.85;;
38937;SDS011;24727;51.974;20.868;2023-04-03T01:41:28;3.20;;;1.08;;
38937;SDS011;24727;51.974;20.868;2023-04-03T01:43:56;3.47;;;1.02;;
38937;SDS011;24727;51.974;20.868;2023-04-03T01:46:21;2.65;;;0.80;;
38937;SDS011;24727;51.974;20.868;2023-04-03T01:48:53;2.35;;;0.60;;
38937;SDS011;24727;51.974;20.868;2023-04-03T01:51:20;4.68;;;1.17;;
38937;SDS011;24727;51.974;20.868;2023-04-03T01:53:47;3.25;;;0.80;;
38937;SDS011;24727;51.974;20.868;2023-04-03T01:56:13;3.60;;;0.90;;
38937;SDS011;24727;51.974;20.868;2023-04-03T01:58:40;2.95;;;1.05;;
38937;SDS011;24727;51.974;20.868;2023-04-03T02:01:06;3.25;;;0.90;;
38937;SDS011;24727;51.974;20.868;2023-04-03T02:03:32;3.05;;;1.02;;
38937;SDS011;24727;51.974;20.868;2023-04-03T02:05:58;4.47;;;0.98;;
38937;SDS011;24727;51.974;20.868;2023-04-03T02:08:25;3.28;;;0.65;;
38937;SDS011;24727;51.974;20.868;2023-04-03T02:10:51;1.95;;;0.80;;
38937;SDS011;24727;51.974;20.868;2023-04-03T02:13:17;3.90;;;0.73;;
38937;SDS011;24727;51.974;20.868;2023-04-03T02:15:45;1.85;;;0.80;;
38937;SDS011;24727;51.974;20.868;2023-04-03T02:18:11;1.50;;;0.77;;
38937;SDS011;24727;51.974;20.868;2023-04-03T02:20:38;1.75;;;0.73;;
38937;SDS011;24727;51.974;20.868;2023-04-03T02:23:04;1.38;;;0.63;;
38937;SDS011;24727;51.974;20.868;2023-04-03T02:25:32;1.73;;;0.52;;
38937;SDS011;24727;51.974;20.868;2023-04-03T02:27:58;2.40;;;0.65;;
38937;SDS011;24727;51.974;20.868;2023-04-03T02:30:24;3.08;;;0.68;;
38937;SDS011;24727;51.974;20.868;2023-04-03T02:32:51;1.27;;;0.85;;
38937;SDS011;24727;51.974;20.868;2023-04-03T02:35:18;1.40;;;0.70;;
38937;SDS011;24727;51.974;20.868;2023-04-03T02:37:44;2.65;;;0.60;;
38937;SDS011;24727;51.974;20.868;2023-04-03T02:40:12;3.53;;;1.02;;
38937;SDS011;24727;51.974;20.868;2023-04-03T02:42:38;1.10;;;0.68;;
38937;SDS011;24727;51.974;20.868;2023-04-03T02:45:07;3.72;;;1.10;;
38937;SDS011;24727;51.974;20.868;2023-04-03T02:47:33;2.03;;;0.77;;
38937;SDS011;24727;51.974;20.868;2023-04-03T02:49:59;1.58;;;0.60;;
38937;SDS011;24727;51.974;20.868;2023-04-03T02:52:25;2.00;;;0.75;;
38937;SDS011;24727;51.974;20.868;2023-04-03T02:54:51;3.17;;;0.80;;
38937;SDS011;24727;51.974;20.868;2023-04-03T02:57:17;2.13;;;0.85;;
38937;SDS011;24727;51.974;20.868;2023-04-03T02:59:43;4.40;;;0.73;;
38937;SDS011;24727;51.974;20.868;2023-04-03T03:02:09;1.27;;;0.57;;
38937;SDS011;24727;51.974;20.868;2023-04-03T03:04:36;3.80;;;0.68;;
38937;SDS011;24727;51.974;20.868;2023-04-03T03:07:03;4.88;;;0.73;;
38937;SDS011;24727;51.974;20.868;2023-04-03T03:09:29;2.47;;;1.00;;
38937;SDS011;24727;51.974;20.868;2023-04-03T03:11:55;3.50;;;0.60;;
38937;SDS011;24727;51.974;20.868;2023-04-03T03:14:22;1.77;;;0.77;;
38937;SDS011;24727;51.974;20.868;2023-04-03T03:16:50;3.75;;;0.95;;
38937;SDS011;24727;51.974;20.868;2023-04-03T03:19:17;1.98;;;0.60;;
38937;SDS011;24727;51.974;20.868;2023-04-03T03:21:43;1.30;;;0.80;;
38937;SDS011;24727;51.974;20.868;2023-04-03T03:24:08;4.70;;;0.90;;
38937;SDS011;24727;51.974;20.868;2023-04-03T03:26:35;1.20;;;0.45;;
38937;SDS011;24727;51.974;20.868;2023-04-03T03:29:01;1.67;;;0.45;;
38937;SDS011;24727;51.974;20.868;2023-04-03T03:31:28;2.45;;;0.80;;
38937;SDS011;24727;51.974;20.868;2023-04-03T03:33:54;1.75;;;0.70;;
38937;SDS011;24727;51.974;20.868;2023-04-03T03:36:20;3.47;;;0.80;;
38937;SDS011;24727;51.974;20.868;2023-04-03T03:38:46;0.88;;;0.50;;
38937;SDS011;24727;51.974;20.868;2023-04-03T03:41:12;2.78;;;1.08;;
38937;SDS011;24727;51.974;20.868;2023-04-03T03:43:38;2.50;;;0.60;;
38937;SDS011;24727;51.974;20.868;2023-04-03T03:46:05;2.40;;;0.77;;
38937;SDS011;24727;51.974;20.868;2023-04-03T03:48:31;4.03;;;0.80;;
38937;SDS011;24727;51.974;20.868;2023-04-03T03:50:58;2.08;;;0.50;;
38937;SDS011;24727;51.974;20.868;2023-04-03T03:53:30;3.15;;;1.23;;
38937;SDS011;24727;51.974;20.868;2023-04-03T03:55:56;6.60;;;2.08;;
38937;SDS011;24727;51.974;20.868;2023-04-03T03:58:22;2.88;;;1.10;;
38937;SDS011;24727;51.974;20.868;2023-04-03T04:00:48;3.92;;;0.77;;
38937;SDS011;24727;51.974;20.868;2023-04-03T04:03:14;2.63;;;0.80;;
38937;SDS011;24727;51.974;20.868;2023-04-03T04:05:40;1.92;;;0.60;;
38937;SDS011;24727;51.974;20.868;2023-04-03T04:08:06;1.73;;;0.73;;
38937;SDS011;24727;51.974;20.868;2023-04-03T04:10:34;4.57;;;0.98;;
38937;SDS011;24727;51.974;20.868;2023-04-03T04:13:02;2.83;;;0.70;;
38937;SDS011;24727;51.974;20.868;2023-04-03T04:15:28;1.27;;;0.60;;
38937;SDS011;24727;51.974;20.868;2023-04-03T04:17:54;4.88;;;1.25;;
38937;SDS011;24727;51.974;20.868;2023-04-03T04:20:20;2.63;;;0.90;;
38937;SDS011;24727;51.974;20.868;2023-04-03T04:22:47;3.78;;;0.90;;
38937;SDS011;24727;51.974;20.868;2023-04-03T04:25:13;2.20;;;0.60;;
38937;SDS011;24727;51.974;20.868;2023-04-03T04:27:39;1.20;;;0.60;;
38937;SDS011;24727;51.974;20.868;2023-04-03T04:30:07;1.50;;;0.73;;
38937;SDS011;24727;51.974;20.868;2023-04-03T04:32:33;2.42;;;0.90;;
38937;SDS011;24727;51.974;20.868;2023-04-03T04:35:00;1.35;;;0.65;;
38937;SDS011;24727;51.974;20.868;2023-04-03T04:37:26;1.17;;;0.65;;
38937;SDS011;24727;51.974;20.868;2023-04-03T04:39:52;1.95;;;0.80;;
38937;SDS011;24727;51.974;20.868;2023-04-03T04:42:18;3.03;;;0.75;;
38937;SDS011;24727;51.974;20.868;2023-04-03T04:44:45;1.80;;;1.08;;
38937;SDS011;24727;51.974;20.868;2023-04-03T04:47:12;2.58;;;0.85;;
38937;SDS011;24727;51.974;20.868;2023-04-03T04:49:39;3.78;;;0.80;;
38937;SDS011;24727;51.974;20.868;2023-04-03T04:52:06;4.50;;;0.85;;
38937;SDS011;24727;51.974;20.868;2023-04-03T04:54:32;2.65;;;0.82;;
38937;SDS011;24727;51.974;20.868;2023-04-03T04:56:58;3.20;;;0.85;;
38937;SDS011;24727;51.974;20.868;2023-04-03T04:59:25;2.85;;;0.70;;
38937;SDS011;24727;51.974;20.868;2023-04-03T05:01:51;1.88;;;0.90;;
38937;SDS011;24727;51.974;20.868;2023-04-03T05:04:17;2.20;;;0.88;;
38937;SDS011;24727;51.974;20.868;2023-04-03T05:06:49;3.22;;;1.10;;
38937;SDS011;24727;51.974;20.868;2023-04-03T05:09:16;1.65;;;0.50;;
38937;SDS011;24727;51.974;20.868;2023-04-03T05:11:42;4.47;;;0.85;;
38937;SDS011;24727;51.974;20.868;2023-04-03T05:14:08;3.38;;;1.00;;
38937;SDS011;24727;51.974;20.868;2023-04-03T05:16:34;3.78;;;0.90;;
38937;SDS011;24727;51.974;20.868;2023-04-03T05:19:01;2.58;;;1.27;;
38937;SDS011;24727;51.974;20.868;2023-04-03T05:21:27;2.30;;;1.02;;
38937;SDS011;24727;51.974;20.868;2023-04-03T05:23:58;4.30;;;0.90;;
38937;SDS011;24727;51.974;20.868;2023-04-03T05:26:30;1.27;;;0.90;;
38937;SDS011;24727;51.974;20.868;2023-04-03T05:29:03;5.68;;;0.80;;
38937;SDS011;24727;51.974;20.868;2023-04-03T05:31:30;1.55;;;0.68;;
38937;SDS011;24727;51.974;20.868;2023-04-03T05:33:56;4.63;;;1.40;;
38937;SDS011;24727;51.974;20.868;2023-04-03T05:36:22;3.65;;;1.17;;
38937;SDS011;24727;51.974;20.868;2023-04-03T05:38:48;3.45;;;0.70;;
38937;SDS011;24727;51.974;20.868;2023-04-03T05:41:15;6.88;;;1.33;;
38937;SDS011;24727;51.974;20.868;2023-04-03T05:43:41;2.38;;;0.90;;
38937;SDS011;24727;51.974;20.868;2023-04-03T05:46:12;3.85;;;1.20;;
38937;SDS011;24727;51.974;20.868;2023-04-03T05:48:40;2.95;;;1.00;;
38937;SDS011;24727;51.974;20.868;2023-04-03T05:51:07;4.82;;;0.93;;
38937;SDS011;24727;51.974;20.868;2023-04-03T05:53:45;2.72;;;1.17;;
38937;SDS011;24727;51.974;20.868;2023-04-03T05:56:13;2.88;;;1.17;;
38937;SDS011;24727;51.974;20.868;2023-04-03T05:58:39;3.08;;;0.93;;
38937;SDS011;24727;51.974;20.868;2023-04-03T06:01:06;3.25;;;0.90;;
38937;SDS011;24727;51.974;20.868;2023-04-03T06:03:32;3.33;;;1.05;;
38937;SDS011;24727;51.974;20.868;2023-04-03T06:05:58;5.57;;;1.05;;
38937;SDS011;24727;51.974;20.868;2023-04-03T06:08:27;1.95;;;0.80;;
38937;SDS011;24727;51.974;20.868;2023-04-03T06:10:53;2.95;;;0.80;;
38937;SDS011;24727;51.974;20.868;2023-04-03T06:13:20;3.15;;;0.93;;
38937;SDS011;24727;51.974;20.868;2023-04-03T06:15:47;2.80;;;1.13;;
38937;SDS011;24727;51.974;20.868;2023-04-03T06:18:13;2.78;;;1.02;;
38937;SDS011;24727;51.974;20.868;2023-04-03T06:20:40;3.28;;;1.05;;
38937;SDS011;24727;51.974;20.868;2023-04-03T06:23:06;2.65;;;0.95;;
38937;SDS011;24727;51.974;20.868;2023-04-03T06:25:32;4.45;;;1.10;;
38937;SDS011;24727;51.974;20.868;2023-04-03T06:27:59;4.13;;;0.90;;
38937;SDS011;24727;51.974;20.868;2023-04-03T06:30:28;1.42;;;0.82;;
38937;SDS011;24727;51.974;20.868;2023-04-03T06:32:55;3.25;;;1.33;;
38937;SDS011;24727;51.974;20.868;2023-04-03T06:35:22;5.93;;;0.85;;
38937;SDS011;24727;51.974;20.868;2023-04-03T06:37:50;2.78;;;0.93;;
38937;SDS011;24727;51.974;20.868;2023-04-03T06:40:19;4.35;;;1.33;;
38937;SDS011;24727;51.974;20.868;2023-04-03T06:42:48;2.55;;;1.00;;
38937;SDS011;24727;51.974;20.868;2023-04-03T06:45:14;3.83;;;0.90;;
38937;SDS011;24727;51.974;20.868;2023-04-03T06:47:43;2.45;;;1.00;;
38937;SDS011;24727;51.974;20.868;2023-04-03T06:50:10;7.88;;;0.90;;
38937;SDS011;24727;51.974;20.868;2023-04-03T06:52:39;2.83;;;0.50;;
38937;SDS011;24727;51.974;20.868;2023-04-03T06:55:06;2.25;;;0.95;;
38937;SDS011;24727;51.974;20.868;2023-04-03T06:57:33;1.75;;;0.75;;
38937;SDS011;24727;51.974;20.868;2023-04-03T06:59:59;0.93;;;0.63;;
38937;SDS011;24727;51.974;20.868;2023-04-03T07:02:26;2.85;;;0.95;;
38937;SDS011;24727;51.974;20.868;2023-04-03T07:04:52;3.25;;;0.88;;
38937;SDS011;24727;51.974;20.868;2023-04-03T07:07:18;2.63;;;0.93;;
38937;SDS011;24727;51.974;20.868;2023-04-03T07:09:45;3.00;;;0.90;;
38937;SDS011;24727;51.974;20.868;2023-04-03T07:12:13;5.55;;;1.00;;
38937;SDS011;24727;51.974;20.868;2023-04-03T07:14:39;1.45;;;0.60;;
38937;SDS011;24727;51.974;20.868;2023-04-03T07:17:05;7.25;;;0.90;;
38937;SDS011;24727;51.974;20.868;2023-04-03T07:19:31;2.42;;;0.73;;
38937;SDS011;24727;51.974;20.868;2023-04-03T07:21:57;1.63;;;0.82;;
38937;SDS011;24727;51.974;20.868;2023-04-03T07:24:30;0.93;;;0.55;;
38937;SDS011;24727;51.974;20.868;2023-04-03T07:26:56;4.80;;;0.95;;
38937;SDS011;24727;51.974;20.868;2023-04-03T07:29:22;1.35;;;0.80;;
38937;SDS011;24727;51.974;20.868;2023-04-03T07:31:49;3.40;;;1.10;;
38937;SDS011;24727;51.974;20.868;2023-04-03T07:34:15;4.82;;;1.08;;
38937;SDS011;24727;51.974;20.868;2023-04-03T07:36:42;3.80;;;0.85;;
38937;SDS011;24727;51.974;20.868;2023-04-03T07:39:08;2.97;;;1.20;;
38937;SDS011;24727;51.974;20.868;2023-04-03T07:41:34;2.75;;;1.40;;
38937;SDS011;24727;51.974;20.868;2023-04-03T07:44:00;2.25;;;0.85;;
38937;SDS011;24727;51.974;20.868;2023-04-03T07:46:27;4.45;;;1.48;;
38937;SDS011;24727;51.974;20.868;2023-04-03T07:48:53;4.00;;;1.10;;
38937;SDS011;24727;51.974;20.868;2023-04-03T07:51:20;1.08;;;0.65;;
38937;SDS011;24727;51.974;20.868;2023-04-03T07:53:46;2.03;;;0.80;;
38937;SDS011;24727;51.974;20.868;2023-04-03T07:56:14;1.38;;;0.63;;
38937;SDS011;24727;51.974;20.868;2023-04-03T07:58:40;5.25;;;1.10;;
38937;SDS011;24727;51.974;20.868;2023-04-03T08:01:07;3.55;;;1.88;;
38937;SDS011;24727;51.974;20.868;2023-04-03T08:03:33;2.03;;;1.10;;
38937;SDS011;24727;51.974;20.868;2023-04-03T08:06:03;2.90;;;1.00;;
38937;SDS011;24727;51.974;20.868;2023-04-03T08:08:30;1.73;;;0.55;;
38937;SDS011;24727;51.974;20.868;2023-04-03T08:10:58;5.93;;;1.10;;
38937;SDS011;24727;51.974;20.868;2023-04-03T08:13:26;2.10;;;0.85;;
38937;SDS011;24727;51.974;20.868;2023-04-03T08:15:52;3.95;;;0.80;;
38937;SDS011;24727;51.974;20.868;2023-04-03T08:18:18;3.03;;;1.02;;
38937;SDS011;24727;51.974;20.868;2023-04-03T08:20:47;3.70;;;1.38;;
38937;SDS011;24727;51.974;20.868;2023-04-03T08:23:14;2.38;;;0.80;;
38937;SDS011;24727;51.974;20.868;2023-04-03T08:25:41;2.75;;;1.10;;
38937;SDS011;24727;51.974;20.868;2023-04-03T08:28:07;2.65;;;0.70;;
38937;SDS011;24727;51.974;20.868;2023-04-03T08:30:40;2.38;;;0.70;;
38937;SDS011;24727;51.974;20.868;2023-04-03T08:33:07;2.88;;;1.48;;
38937;SDS011;24727;51.974;20.868;2023-04-03T08:35:38;1.90;;;0.60;;
38937;SDS011;24727;51.974;20.868;2023-04-03T08:38:06;4.10;;;1.88;;
38937;SDS011;24727;51.974;20.868;2023-04-03T08:40:32;1.83;;;0.82;;
38937;SDS011;24727;51.974;20.868;2023-04-03T08:43:22;2.05;;;0.80;;
38937;SDS011;24727;51.974;20.868;2023-04-03T08:46:11;1.63;;;0.80;;
38937;SDS011;24727;51.974;20.868;2023-04-03T08:48:41;1.00;;;0.50;;
38937;SDS011;24727;51.974;20.868;2023-04-03T08:51:15;2.70;;;1.33;;
38937;SDS011;24727;51.974;20.868;2023-04-03T08:53:46;2.30;;;0.60;;
38937;SDS011;24727;51.974;20.868;2023-04-03T08:56:22;1.95;;;0.88;;
38937;SDS011;24727;51.974;20.868;2023-04-03T08:58:52;2.00;;;0.70;;
38937;SDS011;24727;51.974;20.868;2023-04-03T09:01:30;2.78;;;0.73;;
38937;SDS011;24727;51.974;20.868;2023-04-03T09:04:05;1.52;;;0.77;;
38937;SDS011;24727;51.974;20.868;2023-04-03T09:06:39;6.00;;;0.70;;
38937;SDS011;24727;51.974;20.868;2023-04-03T09:15:06;4.63;;;1.00;;
38937;SDS011;24727;51.974;20.868;2023-04-03T09:28:52;2.67;;;0.80;;
38937;SDS011;24727;51.974;20.868;2023-04-03T09:31:24;2.58;;;1.25;;
38937;SDS011;24727;51.974;20.868;2023-04-03T09:33:56;2.28;;;0.95;;
38937;SDS011;24727;51.974;20.868;2023-04-03T09:36:40;4.75;;;1.42;;
38937;SDS011;24727;51.974;20.868;2023-04-03T09:39:16;3.00;;;0.80;;
38937;SDS011;24727;51.974;20.868;2023-04-03T09:41:54;8.48;;;2.30;;
38937;SDS011;24727;51.974;20.868;2023-04-03T09:44:23;1.88;;;0.70;;
38937;SDS011;24727;51.974;20.868;2023-04-03T09:46:51;2.13;;;0.90;;
38937;SDS011;24727;51.974;20.868;2023-04-03T09:49:18;6.20;;;1.67;;
38937;SDS011;24727;51.974;20.868;2023-04-03T09:51:45;1.63;;;0.85;;
38937;SDS011;24727;51.974;20.868;2023-04-03T09:54:33;3.20;;;0.90;;
38937;SDS011;24727;51.974;20.868;2023-04-03T09:57:04;1.33;;;0.70;;
38937;SDS011;24727;51.974;20.868;2023-04-03T09:59:34;1.40;;;0.55;;
38937;SDS011;24727;51.974;20.868;2023-04-03T10:02:02;3.75;;;1.40;;
38937;SDS011;24727;51.974;20.868;2023-04-03T10:04:41;1.10;;;0.70;;
38937;SDS011;24727;51.974;20.868;2023-04-03T10:09:57;2.72;;;0.70;;
38937;SDS011;24727;51.974;20.868;2023-04-03T10:12:25;3.23;;;0.60;;
38937;SDS011;24727;51.974;20.868;2023-04-03T10:14:55;1.95;;;0.80;;
38937;SDS011;24727;51.974;20.868;2023-04-03T10:36:11;2.85;;;0.98;;
38937;SDS011;24727;51.974;20.868;2023-04-03T10:53:24;3.72;;;0.90;;
38937;SDS011;24727;51.974;20.868;2023-04-03T10:59:14;3.40;;;0.43;;
38937;SDS011;24727;51.974;20.868;2023-04-03T11:01:48;2.92;;;0.80;;
38937;SDS011;24727;51.974;20.868;2023-04-03T11:04:42;1.73;;;1.00;;
38937;SDS011;24727;51.974;20.868;2023-04-03T11:09:42;4.88;;;0.73;;
38937;SDS011;24727;51.974;20.868;2023-04-03T11:12:24;0.70;;;0.70;;
38937;SDS011;24727;51.974;20.868;2023-04-03T11:15:02;0.80;;;0.50;;
38937;SDS011;24727;51.974;20.868;2023-04-03T11:17:33;1.85;;;0.55;;
38937;SDS011;24727;51.974;20.868;2023-04-03T11:22:50;0.98;;;0.60;;
38937;SDS011;24727;51.974;20.868;2023-04-03T11:25:39;4.28;;;1.00;;
38937;SDS011;24727;51.974;20.868;2023-04-03T11:28:11;0.93;;;0.43;;
38937;SDS011;24727;51.974;20.868;2023-04-03T11:30:49;1.20;;;0.63;;
38937;SDS011;24727;51.974;20.868;2023-04-03T11:35:57;2.50;;;0.80;;
38937;SDS011;24727;51.974;20.868;2023-04-03T11:38:34;3.42;;;1.13;;
38937;SDS011;24727;51.974;20.868;2023-04-03T11:41:06;6.85;;;1.33;;
38937;SDS011;24727;51.974;20.868;2023-04-03T11:43:33;2.03;;;0.95;;
38937;SDS011;24727;51.974;20.868;2023-04-03T11:46:22;1.63;;;0.90;;
38937;SDS011;24727;51.974;20.868;2023-04-03T11:48:49;8.15;;;1.20;;
38937;SDS011;24727;51.974;20.868;2023-04-03T11:53:54;2.42;;;1.10;;
38937;SDS011;24727;51.974;20.868;2023-04-03T11:56:40;3.70;;;1.00;;
38937;SDS011;24727;51.974;20.868;2023-04-03T12:04:15;2.22;;;0.50;;
38937;SDS011;24727;51.974;20.868;2023-04-03T12:18:30;3.10;;;0.90;;
38937;SDS011;24727;51.974;20.868;2023-04-03T12:21:06;4.90;;;0.70;;
38937;SDS011;24727;51.974;20.868;2023-04-03T12:23:35;2.05;;;0.57;;
38937;SDS011;24727;51.974;20.868;2023-04-03T12:26:22;3.05;;;0.90;;
38937;SDS011;24727;51.974;20.868;2023-04-03T12:29:01;2.58;;;1.10;;
38937;SDS011;24727;51.974;20.868;2023-04-03T12:31:45;1.35;;;0.47;;
38937;SDS011;24727;51.974;20.868;2023-04-03T12:48:51;1.40;;;0.50;;
38937;SDS011;24727;51.974;20.868;2023-04-03T12:54:04;1.23;;;0.60;;
38937;SDS011;24727;51.974;20.868;2023-04-03T12:56:45;1.20;;;0.50;;
38937;SDS011;24727;51.974;20.868;2023-04-03T12:59:23;1.08;;;0.35;;
38937;SDS011;24727;51.974;20.868;2023-04-03T13:02:00;1.75;;;0.60;;
38937;SDS011;24727;51.974;20.868;2023-04-03T13:04:28;1.55;;;0.50;;
38937;SDS011;24727;51.974;20.868;2023-04-03T13:06:55;1.55;;;0.70;;
38937;SDS011;24727;51.974;20.868;2023-04-03T13:09:26;1.70;;;0.88;;
38937;SDS011;24727;51.974;20.868;2023-04-03T13:11:56;1.05;;;0.45;;
38937;SDS011;24727;51.974;20.868;2023-04-03T13:14:29;3.03;;;0.40;;
38937;SDS011;24727;51.974;20.868;2023-04-03T13:17:14;2.83;;;0.50;;
38937;SDS011;24727;51.974;20.868;2023-04-03T13:19:42;1.60;;;0.50;;
38937;SDS011;24727;51.974;20.868;2023-04-03T13:22:24;9.35;;;2.75;;
38937;SDS011;24727;51.974;20.868;2023-04-03T13:24:52;40.17;;;13.52;;
38937;SDS011;24727;51.974;20.868;2023-04-03T13:27:20;33.00;;;12.43;;
38937;SDS011;24727;51.974;20.868;2023-04-03T13:29:50;4.38;;;2.42;;
38937;SDS011;24727;51.974;20.868;2023-04-03T13:32:23;38.03;;;13.35;;
38937;SDS011;24727;51.974;20.868;2023-04-03T13:34:52;19.92;;;6.88;;
38937;SDS011;24727;51.974;20.868;2023-04-03T13:42:36;20.70;;;5.35;;
38937;SDS011;24727;51.974;20.868;2023-04-03T13:47:50;12.50;;;4.80;;
38937;SDS011;24727;51.974;20.868;2023-04-03T13:50:20;9.95;;;3.55;;
38937;SDS011;24727;51.974;20.868;2023-04-03T13:53:33;11.52;;;3.70;;
38937;SDS011;24727;51.974;20.868;2023-04-03T13:58:25;6.10;;;2.50;;
38937;SDS011;24727;51.974;20.868;2023-04-03T14:00:56;20.75;;;6.65;;
38937;SDS011;24727;51.974;20.868;2023-04-03T14:03:40;7.75;;;2.85;;
38937;SDS011;24727;51.974;20.868;2023-04-03T14:06:15;8.00;;;3.33;;
38937;SDS011;24727;51.974;20.868;2023-04-03T14:08:42;7.10;;;3.65;;
38937;SDS011;24727;51.974;20.868;2023-04-03T14:11:43;6.07;;;2.20;;
38937;SDS011;24727;51.974;20.868;2023-04-03T14:14:06;4.75;;;1.70;;
38937;SDS011;24727;51.974;20.868;2023-04-03T14:16:41;8.82;;;2.88;;
38937;SDS011;24727;51.974;20.868;2023-04-03T14:19:20;1.23;;;0.63;;
38937;SDS011;24727;51.974;20.868;2023-04-03T14:21:50;2.05;;;1.20;;
38937;SDS011;24727;51.974;20.868;2023-04-03T14:24:19;9.40;;;3.80;;
38937;SDS011;24727;51.974;20.868;2023-04-03T14:26:47;7.63;;;3.63;;
38937;SDS011;24727;51.974;20.868;2023-04-03T14:29:15;5.60;;;2.45;;
38937;SDS011;24727;51.974;20.868;2023-04-03T14:31:42;3.28;;;1.58;;
38937;SDS011;24727;51.974;20.868;2023-04-03T14:34:11;4.53;;;0.90;;
38937;SDS011;24727;51.974;20.868;2023-04-03T14:36:39;2.25;;;0.60;;
38937;SDS011;24727;51.974;20.868;2023-04-03T14:39:07;2.63;;;1.45;;
38937;SDS011;24727;51.974;20.868;2023-04-03T14:41:36;9.00;;;3.10;;
38937;SDS011;24727;51.974;20.868;2023-04-03T14:44:03;6.90;;;2.33;;
38937;SDS011;24727;51.974;20.868;2023-04-03T14:46:34;23.63;;;6.13;;
38937;SDS011;24727;51.974;20.868;2023-04-03T14:49:06;50.50;;;11.48;;
38937;SDS011;24727;51.974;20.868;2023-04-03T14:51:40;42.60;;;12.30;;
38937;SDS011;24727;51.974;20.868;2023-04-03T14:54:09;29.63;;;9.15;;
38937;SDS011;24727;51.974;20.868;2023-04-03T14:56:39;15.10;;;3.90;;
38937;SDS011;24727;51.974;20.868;2023-04-03T14:59:08;23.25;;;6.80;;
38937;SDS011;24727;51.974;20.868;2023-04-03T15:01:38;18.90;;;5.53;;
38937;SDS011;24727;51.974;20.868;2023-04-03T15:04:16;18.10;;;6.97;;
38937;SDS011;24727;51.974;20.868;2023-04-03T15:06:46;28.55;;;6.30;;
38937;SDS011;24727;51.974;20.868;2023-04-03T15:11:48;22.60;;;6.07;;
38937;SDS011;24727;51.974;20.868;2023-04-03T15:14:16;22.50;;;5.50;;
38937;SDS011;24727;51.974;20.868;2023-04-03T15:16:43;18.00;;;5.28;;
38937;SDS011;24727;51.974;20.868;2023-04-03T15:19:10;29.77;;;7.13;;
38937;SDS011;24727;51.974;20.868;2023-04-03T15:21:37;8.35;;;3.03;;
38937;SDS011;24727;51.974;20.868;2023-04-03T15:24:04;6.70;;;2.47;;
38937;SDS011;24727;51.974;20.868;2023-04-03T15:26:30;29.90;;;8.88;;
38937;SDS011;24727;51.974;20.868;2023-04-03T15:28:57;14.60;;;3.20;;
38937;SDS011;24727;51.974;20.868;2023-04-03T15:33:53;11.25;;;3.42;;
38937;SDS011;24727;51.974;20.868;2023-04-03T15:36:18;13.45;;;5.15;;
38937;SDS011;24727;51.974;20.868;2023-04-03T15:38:51;9.25;;;3.60;;
38937;SDS011;24727;51.974;20.868;2023-04-03T15:41:18;10.13;;;3.97;;
38937;SDS011;24727;51.974;20.868;2023-04-03T15:43:44;3.97;;;1.65;;
38937;SDS011;24727;51.974;20.868;2023-04-03T15:46:12;2.13;;;1.30;;
38937;SDS011;24727;51.974;20.868;2023-04-03T15:48:38;5.57;;;1.85;;
38937;SDS011;24727;51.974;20.868;2023-04-03T15:51:05;10.10;;;3.33;;
38937;SDS011;24727;51.974;20.868;2023-04-03T15:53:32;3.78;;;1.67;;
38937;SDS011;24727;51.974;20.868;2023-04-03T15:55:58;3.40;;;1.52;;
38937;SDS011;24727;51.974;20.868;2023-04-03T15:58:25;4.85;;;1.13;;
38937;SDS011;24727;51.974;20.868;2023-04-03T16:00:50;8.50;;;1.40;;
38937;SDS011;24727;51.974;20.868;2023-04-03T16:03:17;4.10;;;2.03;;
38937;SDS011;24727;51.974;20.868;2023-04-03T16:05:45;15.15;;;7.70;;
38937;SDS011;24727;51.974;20.868;2023-04-03T16:08:11;2.90;;;1.23;;
38937;SDS011;24727;51.974;20.868;2023-04-03T16:10:38;2.90;;;1.40;;
38937;SDS011;24727;51.974;20.868;2023-04-03T16:13:05;2.60;;;1.27;;
38937;SDS011;24727;51.974;20.868;2023-04-03T16:15:34;3.15;;;1.13;;
38937;SDS011;24727;51.974;20.868;2023-04-03T16:18:01;2.97;;;1.10;;
38937;SDS011;24727;51.974;20.868;2023-04-03T16:20:27;2.97;;;1.08;;
38937;SDS011;24727;51.974;20.868;2023-04-03T16:22:55;3.75;;;1.27;;
38937;SDS011;24727;51.974;20.868;2023-04-03T16:25:24;2.55;;;1.20;;
38937;SDS011;24727;51.974;20.868;2023-04-03T16:27:50;3.90;;;2.80;;
38937;SDS011;24727;51.974;20.868;2023-04-03T16:30:17;2.35;;;1.10;;
38937;SDS011;24727;51.974;20.868;2023-04-03T16:32:44;3.88;;;1.80;;
38937;SDS011;24727;51.974;20.868;2023-04-03T16:35:10;2.60;;;1.60;;
38937;SDS011;24727;51.974;20.868;2023-04-03T16:37:37;4.63;;;1.80;;
38937;SDS011;24727;51.974;20.868;2023-04-03T16:40:06;5.43;;;1.75;;
38937;SDS011;24727;51.974;20.868;2023-04-03T16:42:35;4.60;;;1.90;;
38937;SDS011;24727;51.974;20.868;2023-04-03T16:45:01;5.20;;;2.65;;
38937;SDS011;24727;51.974;20.868;2023-04-03T16:47:29;4.32;;;2.00;;
38937;SDS011;24727;51.974;20.868;2023-04-03T16:49:55;6.68;;;3.38;;
38937;SDS011;24727;51.974;20.868;2023-04-03T16:52:23;4.57;;;2.08;;